createdAt,value
2019-04-06T00:02:30.270Z,27.13
2019-04-06T00:04:57.025Z,27.13
2019-04-06T00:07:24.096Z,26.47
2019-04-06T00:09:50.963Z,30.57
2019-04-06T00:12:17.844Z,31.17
2019-04-06T00:14:44.816Z,31.27
2019-04-06T00:17:11.612Z,28.33
2019-04-06T00:19:38.390Z,24.10
2019-04-06T00:22:05.350Z,25.53
2019-04-06T00:24:32.348Z,27.30
2019-04-06T00:26:59.570Z,25.63
2019-04-06T00:29:26.344Z,24.80
2019-04-06T00:32:25.011Z,25.83
2019-04-06T00:34:52.096Z,25.27
2019-04-06T00:37:18.928Z,26.00
2019-04-06T00:39:45.811Z,25.90
2019-04-06T00:42:12.680Z,27.13
2019-04-06T00:44:39.560Z,27.10
2019-04-06T00:47:06.677Z,26.23
2019-04-06T00:49:33.430Z,26.33
2019-04-06T00:52:00.400Z,28.07
2019-04-06T00:54:27.386Z,27.60
2019-04-06T00:56:54.156Z,27.60
2019-04-06T00:59:21.161Z,26.20
2019-04-06T01:01:47.931Z,25.97
2019-04-06T01:04:14.833Z,23.87
2019-04-06T01:06:41.580Z,24.97
2019-04-06T01:09:08.665Z,26.23
2019-04-06T01:11:35.761Z,24.10
2019-04-06T01:14:02.848Z,23.83
2019-04-06T01:16:29.710Z,25.00
2019-04-06T01:18:56.717Z,25.43
2019-04-06T01:21:23.597Z,27.90
2019-04-06T01:23:50.615Z,26.23
2019-04-06T01:26:17.580Z,24.23
2019-04-06T01:28:44.607Z,25.37
2019-04-06T01:31:11.409Z,24.50
2019-04-06T01:33:38.244Z,25.93
2019-04-06T01:36:05.436Z,22.90
2019-04-06T01:38:32.213Z,24.50
2019-04-06T01:40:59.096Z,27.23
2019-04-06T01:43:26.094Z,26.67
2019-04-06T01:45:53.219Z,25.33
2019-04-06T01:48:20.360Z,26.07
2019-04-06T01:50:47.388Z,24.63
2019-04-06T01:53:14.425Z,23.23
2019-04-06T01:55:41.398Z,21.77
2019-04-06T01:58:08.364Z,24.07
2019-04-06T02:00:35.373Z,22.07
2019-04-06T02:03:02.648Z,24.10
2019-04-06T02:05:29.656Z,21.40
2019-04-06T02:07:56.676Z,23.23
2019-04-06T02:10:23.945Z,22.50
2019-04-06T02:12:50.997Z,22.97
2019-04-06T02:15:18.081Z,24.30
2019-04-06T02:17:45.175Z,24.20
2019-04-06T02:20:12.221Z,24.37
2019-04-06T02:22:39.193Z,24.27
2019-04-06T02:25:08.696Z,23.57
2019-04-06T02:27:36.038Z,25.10
2019-04-06T02:30:15.593Z,26.33
2019-04-06T02:32:52.999Z,28.73
2019-04-06T02:35:30.884Z,25.83
2019-04-06T02:38:20.044Z,24.97
2019-04-06T02:41:01.573Z,24.57
2019-04-06T02:43:30.643Z,25.07
2019-04-06T02:45:57.606Z,26.13
2019-04-06T02:48:24.568Z,23.70
2019-04-06T02:50:51.480Z,25.97
2019-04-06T02:53:18.692Z,25.20
2019-04-06T02:55:45.514Z,25.87
2019-04-06T02:58:12.541Z,29.17
2019-04-06T03:00:39.459Z,26.93
2019-04-06T03:03:06.459Z,25.97
2019-04-06T03:05:33.776Z,25.47
2019-04-06T03:08:00.760Z,25.33
2019-04-06T03:10:27.814Z,26.27
2019-04-06T03:12:54.849Z,25.10
2019-04-06T03:15:21.889Z,26.10
2019-04-06T03:17:48.673Z,27.10
2019-04-06T03:20:15.581Z,25.40
2019-04-06T03:22:42.612Z,25.40
2019-04-06T03:25:09.739Z,26.23
2019-04-06T03:27:36.763Z,26.93
2019-04-06T03:30:05.082Z,25.13
2019-04-06T03:32:32.341Z,25.50
2019-04-06T03:35:00.063Z,24.10
2019-04-06T03:37:27.444Z,22.13
2019-04-06T03:39:54.573Z,22.37
2019-04-06T03:42:21.670Z,21.10
2019-04-06T03:44:48.761Z,23.03
2019-04-06T03:47:15.956Z,23.23
2019-04-06T03:49:43.069Z,22.27
2019-04-06T03:52:09.888Z,22.33
2019-04-06T03:54:37.315Z,22.67
2019-04-06T03:57:14.355Z,24.40
2019-04-06T03:59:33.743Z,22.43
2019-04-06T04:02:00.544Z,23.97
2019-04-06T04:04:27.477Z,22.57
2019-04-06T04:06:54.814Z,20.70
2019-04-06T04:09:21.967Z,23.60
2019-04-06T04:11:48.977Z,24.17
2019-04-06T04:14:15.999Z,24.43
2019-04-06T04:16:43.145Z,25.87
2019-04-06T04:19:10.105Z,23.30
2019-04-06T04:21:37.471Z,27.37
2019-04-06T04:24:04.463Z,23.13
2019-04-06T04:26:31.380Z,24.33
2019-04-06T04:28:58.271Z,22.07
2019-04-06T04:31:25.190Z,24.63
2019-04-06T04:33:52.638Z,24.43
2019-04-06T04:36:19.463Z,23.20
2019-04-06T04:38:46.717Z,22.83
2019-04-06T04:41:13.631Z,22.80
2019-04-06T04:43:40.498Z,26.07
2019-04-06T04:46:07.539Z,24.47
2019-04-06T04:48:34.407Z,25.87
2019-04-06T04:51:01.340Z,32.53
2019-04-06T04:53:28.416Z,23.50
2019-04-06T04:55:55.753Z,23.23
2019-04-06T04:58:22.732Z,23.10
2019-04-06T05:00:50.112Z,22.53
2019-04-06T05:03:17.220Z,21.77
2019-04-06T05:05:44.116Z,23.30
2019-04-06T05:08:11.003Z,22.63
2019-04-06T05:10:37.781Z,20.03
2019-04-06T05:13:04.599Z,21.43
2019-04-06T05:15:46.853Z,22.27
2019-04-06T05:18:13.853Z,19.17
2019-04-06T05:20:40.879Z,20.53
2019-04-06T05:23:07.990Z,20.23
2019-04-06T05:25:34.803Z,19.43
2019-04-06T05:28:01.925Z,22.83
2019-04-06T05:30:28.705Z,20.43
2019-04-06T05:32:55.541Z,20.77
2019-04-06T05:35:22.791Z,21.43
2019-04-06T05:37:50.049Z,23.53
2019-04-06T05:40:16.867Z,19.07
2019-04-06T05:42:43.935Z,19.10
2019-04-06T05:45:11.028Z,20.73
2019-04-06T05:47:38.004Z,22.20
2019-04-06T05:50:07.745Z,22.40
2019-04-06T05:52:34.834Z,22.93
2019-04-06T05:55:01.845Z,20.80
2019-04-06T05:57:31.811Z,22.57
2019-04-06T05:59:57.795Z,21.13
2019-04-06T06:02:24.904Z,21.93
2019-04-06T06:04:51.732Z,19.73
2019-04-06T06:07:18.612Z,22.00
2019-04-06T06:09:45.421Z,20.20
2019-04-06T06:12:13.276Z,20.37
2019-04-06T06:14:48.058Z,18.57
2019-04-06T06:17:15.152Z,17.63
2019-04-06T06:19:42.036Z,20.33
2019-04-06T06:22:09.076Z,20.47
2019-04-06T06:24:35.997Z,19.47
2019-04-06T06:27:03.167Z,20.93
2019-04-06T06:29:30.124Z,20.37
2019-04-06T06:31:57.098Z,20.33
2019-04-06T06:34:23.944Z,19.33
2019-04-06T06:36:50.913Z,21.77
2019-04-06T06:39:17.960Z,21.97
2019-04-06T06:41:44.748Z,22.57
2019-04-06T06:44:11.728Z,21.33
2019-04-06T06:46:38.761Z,21.83
2019-04-06T06:49:05.693Z,23.43
2019-04-06T06:51:32.686Z,22.47
2019-04-06T06:53:59.460Z,21.37
2019-04-06T06:56:26.460Z,22.50
2019-04-06T06:58:53.762Z,21.33
2019-04-06T07:01:20.785Z,23.40
2019-04-06T07:03:47.856Z,23.93
2019-04-06T07:06:14.901Z,24.77
2019-04-06T07:08:41.962Z,26.50
2019-04-06T07:11:08.783Z,24.97
2019-04-06T07:13:35.642Z,27.20
2019-04-06T07:16:02.677Z,26.90
2019-04-06T07:18:29.704Z,25.37
2019-04-06T07:20:56.468Z,24.57
2019-04-06T07:23:23.255Z,25.13
2019-04-06T07:25:57.332Z,28.80
2019-04-06T07:28:18.826Z,26.10
2019-04-06T07:30:45.776Z,26.07
2019-04-06T07:33:12.541Z,27.20
2019-04-06T07:35:39.407Z,26.10
2019-04-06T07:38:06.405Z,26.27
2019-04-06T07:40:33.472Z,28.43
2019-04-06T07:43:00.228Z,25.37
2019-04-06T07:45:26.977Z,25.45
2019-04-06T07:47:54.277Z,27.02
2019-04-06T07:50:21.167Z,25.77
2019-04-06T07:52:48.172Z,26.93
2019-04-06T07:55:15.199Z,28.55
2019-04-06T07:57:42.425Z,25.60
2019-04-06T08:00:10.010Z,28.40
2019-04-06T08:02:37.490Z,28.38
2019-04-06T08:05:05.032Z,26.95
2019-04-06T08:07:32.072Z,26.68
2019-04-06T08:10:05.423Z,28.55
2019-04-06T08:12:32.320Z,27.00
2019-04-06T08:14:59.118Z,28.02
2019-04-06T08:17:25.936Z,26.30
2019-04-06T08:19:53.123Z,26.17
2019-04-06T08:22:20.228Z,27.25
2019-04-06T08:24:47.418Z,26.12
2019-04-06T08:27:14.631Z,25.70
2019-04-06T08:29:41.504Z,22.05
2019-04-06T08:32:08.389Z,24.30
2019-04-06T08:34:37.723Z,23.02
2019-04-06T08:37:04.917Z,24.30
2019-04-06T08:39:31.712Z,22.05
2019-04-06T08:41:58.709Z,21.80
2019-04-06T08:44:25.775Z,24.00
2019-04-06T08:46:52.665Z,24.50
2019-04-06T08:49:19.560Z,23.73
2019-04-06T08:51:46.513Z,23.35
2019-04-06T08:54:13.530Z,19.15
2019-04-06T08:56:40.468Z,17.42
2019-04-06T08:59:12.213Z,17.75
2019-04-06T09:01:36.256Z,17.48
2019-04-06T09:04:03.667Z,17.25
2019-04-06T09:06:31.522Z,18.12
2019-04-06T09:08:58.859Z,18.60
2019-04-06T09:11:25.829Z,17.23
2019-04-06T09:13:52.880Z,18.48
2019-04-06T09:16:19.957Z,16.57
2019-04-06T09:18:49.160Z,16.30
2019-04-06T09:21:15.629Z,16.30
2019-04-06T09:23:42.633Z,18.10
2019-04-06T09:26:09.652Z,18.23
2019-04-06T09:28:36.735Z,17.92
2019-04-06T09:31:03.857Z,19.25
2019-04-06T09:33:31.128Z,17.85
2019-04-06T09:35:58.001Z,16.73
2019-04-06T09:38:24.744Z,15.45
2019-04-06T09:40:51.520Z,15.65
2019-04-06T09:43:18.860Z,15.15
2019-04-06T09:46:04.483Z,14.80
2019-04-06T09:48:51.359Z,13.10
2019-04-06T09:51:38.055Z,13.45
2019-04-06T09:54:11.335Z,10.38
2019-04-06T09:56:57.628Z,12.95
2019-04-06T09:59:37.542Z,12.68
2019-04-06T10:02:27.353Z,14.45
2019-04-06T10:05:03.507Z,9.45
2019-04-06T10:07:43.461Z,9.95
2019-04-06T10:10:27.195Z,10.20
2019-04-06T10:13:05.784Z,11.55
2019-04-06T10:15:48.219Z,9.90
2019-04-06T10:18:37.778Z,9.58
2019-04-06T10:21:24.525Z,9.28
2019-04-06T10:23:57.920Z,9.33
2019-04-06T10:26:42.592Z,8.95
2019-04-06T10:29:18.681Z,8.70
2019-04-06T10:31:58.391Z,10.15
2019-04-06T10:34:53.751Z,9.15
2019-04-06T10:37:58.280Z,9.53
2019-04-06T10:40:31.669Z,10.03
2019-04-06T10:43:21.691Z,10.38
2019-04-06T10:46:14.034Z,9.33
2019-04-06T10:49:12.837Z,10.13
2019-04-06T10:52:00.798Z,9.30
2019-04-06T10:54:47.417Z,11.70
2019-04-06T10:57:36.731Z,9.53
2019-04-06T11:00:26.488Z,8.33
2019-04-06T11:03:19.814Z,9.15
2019-04-06T11:06:10.441Z,11.12
2019-04-06T11:08:52.617Z,10.30
2019-04-06T11:11:45.684Z,9.45
2019-04-06T11:14:35.413Z,10.88
2019-04-06T11:17:24.928Z,8.65
2019-04-06T11:20:08.627Z,9.15
2019-04-06T11:22:47.067Z,8.93
2019-04-06T11:25:19.665Z,9.70
2019-04-06T11:28:05.545Z,10.03
2019-04-06T11:30:44.366Z,10.08
2019-04-06T11:33:40.104Z,10.43
2019-04-06T11:36:31.948Z,9.85
2019-04-06T11:39:17.070Z,10.10
2019-04-06T11:42:03.148Z,9.88
2019-04-06T11:44:49.394Z,9.80
2019-04-06T11:47:34.305Z,9.85
2019-04-06T11:50:29.993Z,10.13
2019-04-06T11:53:48.769Z,12.07
2019-04-06T11:56:44.240Z,8.55
2019-04-06T11:59:29.340Z,9.70
2019-04-06T12:02:14.113Z,9.08
2019-04-06T12:04:58.601Z,9.28
2019-04-06T12:07:36.545Z,9.38
2019-04-06T12:10:22.012Z,8.63
2019-04-06T12:13:20.429Z,8.85
2019-04-06T12:16:07.377Z,11.03
2019-04-06T12:18:44.915Z,9.78
2019-04-06T12:21:31.912Z,10.03
2019-04-06T12:24:12.880Z,10.88
2019-04-06T12:27:00.187Z,10.72
2019-04-06T12:29:55.674Z,10.05
2019-04-06T12:32:47.988Z,9.30
2019-04-06T12:35:23.409Z,8.73
2019-04-06T12:38:02.741Z,8.65
2019-04-06T12:40:47.665Z,9.20
2019-04-06T12:43:32.934Z,9.58
2019-04-06T12:46:19.543Z,8.70
2019-04-06T12:49:04.700Z,9.28
2019-04-06T12:51:54.063Z,9.75
2019-04-06T12:54:55.974Z,9.83
2019-04-06T12:57:40.678Z,11.90
2019-04-06T13:00:52.709Z,11.85
2019-04-06T13:03:39.254Z,11.35
2019-04-06T13:06:26.369Z,9.40
2019-04-06T13:09:16.924Z,9.28
2019-04-06T13:12:06.355Z,10.23
2019-04-06T13:14:42.272Z,8.65
2019-04-06T13:17:24.629Z,8.25
2019-04-06T13:20:03.974Z,8.33
2019-04-06T13:22:49.127Z,8.08
2019-04-06T13:25:22.093Z,7.58
2019-04-06T13:27:59.733Z,9.60
2019-04-06T13:30:36.885Z,11.00
2019-04-06T13:33:17.103Z,9.45
2019-04-06T13:35:50.491Z,9.90
2019-04-06T13:38:45.491Z,10.50
2019-04-06T13:41:34.976Z,9.80
2019-04-06T13:44:30.556Z,9.55
2019-04-06T13:47:15.370Z,10.32
2019-04-06T13:49:58.108Z,9.80
2019-04-06T13:52:47.356Z,11.53
2019-04-06T13:55:41.295Z,9.70
2019-04-06T13:58:29.029Z,11.40
2019-04-06T14:01:16.859Z,10.53
2019-04-06T14:03:48.621Z,10.28
2019-04-06T14:06:53.574Z,9.50
2019-04-06T14:09:52.060Z,10.08
2019-04-06T14:12:56.688Z,11.33
2019-04-06T14:15:56.116Z,14.23
2019-04-06T14:18:45.046Z,8.95
2019-04-06T14:21:34.213Z,10.48
2019-04-06T14:24:10.634Z,10.63
2019-04-06T14:27:09.718Z,8.45
2019-04-06T14:30:08.306Z,7.90
2019-04-06T14:33:19.942Z,7.95
2019-04-06T14:36:09.939Z,8.28
2019-04-06T14:39:05.425Z,8.58
2019-04-06T14:41:59.857Z,9.90
2019-04-06T14:44:34.022Z,8.63
2019-04-06T14:47:24.944Z,11.08
2019-04-06T14:50:04.375Z,9.88
2019-04-06T14:52:43.060Z,8.05
2019-04-06T14:55:23.720Z,9.00
2019-04-06T14:58:28.468Z,8.75
2019-04-06T15:01:06.291Z,8.20
2019-04-06T15:03:49.460Z,7.80
2019-04-06T15:06:38.484Z,7.70
2019-04-06T15:09:17.028Z,7.60
2019-04-06T15:11:52.355Z,8.43
2019-04-06T15:14:27.533Z,8.28
2019-04-06T15:17:00.265Z,8.58
2019-04-06T15:19:37.708Z,7.65
2019-04-06T15:22:22.923Z,8.28
2019-04-06T15:25:00.994Z,8.88
2019-04-06T15:27:57.366Z,7.40
2019-04-06T15:30:31.631Z,8.18
2019-04-06T15:33:11.182Z,8.50
2019-04-06T15:36:03.682Z,7.15
2019-04-06T15:38:49.588Z,7.45
2019-04-06T15:41:39.399Z,7.33
2019-04-06T15:44:32.032Z,7.42
2019-04-06T15:47:17.183Z,9.03
2019-04-06T15:49:52.583Z,7.28
2019-04-06T15:52:39.945Z,7.22
2019-04-06T15:55:17.424Z,7.22
2019-04-06T15:58:04.126Z,7.83
2019-04-06T16:00:43.793Z,7.55
2019-04-06T16:03:38.151Z,8.45
2019-04-06T16:06:11.734Z,7.25
2019-04-06T16:08:52.982Z,8.45
2019-04-06T16:11:30.173Z,8.53
2019-04-06T16:14:21.093Z,8.05
2019-04-06T16:16:56.838Z,10.70
2019-04-06T16:19:36.786Z,8.35
2019-04-06T16:22:10.906Z,8.85
2019-04-06T16:24:46.904Z,10.00
2019-04-06T16:27:20.321Z,8.00
2019-04-06T16:29:57.123Z,6.92
2019-04-06T16:32:36.659Z,11.12
2019-04-06T16:35:22.487Z,8.88
2019-04-06T16:38:07.736Z,9.08
2019-04-06T16:41:07.026Z,8.08
2019-04-06T16:43:52.569Z,6.92
2019-04-06T16:46:27.396Z,8.88
2019-04-06T16:49:16.275Z,7.15
2019-04-06T16:51:57.907Z,8.15
2019-04-06T16:54:42.579Z,7.37
2019-04-06T16:57:39.695Z,7.05
2019-04-06T17:00:32.910Z,7.33
2019-04-06T17:03:10.161Z,7.55
2019-04-06T17:06:17.902Z,7.85
2019-04-06T17:09:06.005Z,20.75
2019-04-06T17:11:54.383Z,145.10
2019-04-06T17:14:42.866Z,7.83
2019-04-06T17:17:15.429Z,9.35
2019-04-06T17:20:08.275Z,8.55
2019-04-06T17:22:54.034Z,7.97
2019-04-06T17:25:43.762Z,13.43
2019-04-06T17:28:33.052Z,8.43
2019-04-06T17:31:25.609Z,7.30
2019-04-06T17:34:22.092Z,6.78
2019-04-06T17:37:15.505Z,7.58
2019-04-06T17:39:50.605Z,8.60
2019-04-06T17:42:55.900Z,6.40
2019-04-06T17:45:52.129Z,7.25
2019-04-06T17:48:29.509Z,7.58
2019-04-06T17:51:02.500Z,5.95
2019-04-06T17:53:52.077Z,6.80
2019-04-06T17:56:48.031Z,6.75
2019-04-06T17:59:36.884Z,6.12
2019-04-06T18:02:17.953Z,7.80
2019-04-06T18:04:52.469Z,6.33
2019-04-06T18:07:31.103Z,6.50
2019-04-06T18:10:20.859Z,6.40
2019-04-06T18:13:03.639Z,5.67
2019-04-06T18:15:31.440Z,5.75
2019-04-06T18:17:58.808Z,6.00
2019-04-06T18:20:26.101Z,7.92
2019-04-06T18:22:53.708Z,6.03
2019-04-06T18:25:21.946Z,6.05
2019-04-06T18:27:49.334Z,6.12
2019-04-06T18:30:16.860Z,6.28
2019-04-06T18:33:00.621Z,5.75
2019-04-06T18:35:25.663Z,6.95
2019-04-06T18:38:01.754Z,7.20
2019-04-06T18:40:29.294Z,5.87
2019-04-06T18:42:56.452Z,8.03
2019-04-06T18:45:30.272Z,10.40
2019-04-06T18:47:57.244Z,9.20
2019-04-06T18:50:35.917Z,9.78
2019-04-06T18:52:58.109Z,8.93
2019-04-06T18:55:56.099Z,8.40
2019-04-06T18:58:36.525Z,7.37
2019-04-06T19:01:17.260Z,7.33
2019-04-06T19:04:17.222Z,8.00
2019-04-06T19:07:06.274Z,7.85
2019-04-06T19:09:33.791Z,7.70
2019-04-06T19:12:00.794Z,7.83
2019-04-06T19:14:27.908Z,7.00
2019-04-06T19:16:56.036Z,6.58
2019-04-06T19:19:23.628Z,10.58
2019-04-06T19:21:50.574Z,7.03
2019-04-06T19:24:17.766Z,7.00
2019-04-06T19:26:44.700Z,7.50
2019-04-06T19:29:11.634Z,7.20
2019-04-06T19:31:38.901Z,7.65
2019-04-06T19:34:05.974Z,8.00
2019-04-06T19:36:33.434Z,6.97
2019-04-06T19:39:00.623Z,8.50
2019-04-06T19:41:28.115Z,7.50
2019-04-06T19:43:55.636Z,8.68
2019-04-06T19:46:23.581Z,7.08
2019-04-06T19:48:50.665Z,6.72
2019-04-06T19:51:17.581Z,6.37
2019-04-06T19:53:44.611Z,7.22
2019-04-06T19:56:12.093Z,6.67
2019-04-06T19:58:43.763Z,6.87
2019-04-06T20:01:11.258Z,7.10
2019-04-06T20:03:39.544Z,6.90
2019-04-06T20:06:07.102Z,7.25
2019-04-06T20:08:34.081Z,8.43
2019-04-06T20:11:01.120Z,5.92
2019-04-06T20:13:28.917Z,6.80
2019-04-06T20:15:56.490Z,7.33
2019-04-06T20:18:24.600Z,7.12
2019-04-06T20:20:51.967Z,6.47
2019-04-06T20:23:19.047Z,6.25
2019-04-06T20:25:46.404Z,6.55
2019-04-06T20:28:13.538Z,5.55
2019-04-06T20:30:41.274Z,6.35
2019-04-06T20:33:08.719Z,6.60
2019-04-06T20:35:36.109Z,7.40
2019-04-06T20:38:03.885Z,5.83
2019-04-06T20:40:31.324Z,5.70
2019-04-06T20:42:58.638Z,5.78
2019-04-06T20:45:25.850Z,5.87
2019-04-06T20:47:53.132Z,5.67
2019-04-06T20:50:20.298Z,5.50
2019-04-06T20:52:48.172Z,5.92
2019-04-06T20:55:15.434Z,5.75
2019-04-06T20:57:42.695Z,5.92
2019-04-06T21:00:10.159Z,5.90
2019-04-06T21:02:37.670Z,5.55
2019-04-06T21:05:05.556Z,6.00
2019-04-06T21:07:33.450Z,5.60
2019-04-06T21:10:00.659Z,5.50
2019-04-06T21:12:27.813Z,6.03
2019-04-06T21:14:55.473Z,5.97
2019-04-06T21:17:22.774Z,6.42
2019-04-06T21:19:49.881Z,5.45
2019-04-06T21:22:17.303Z,5.70
2019-04-06T21:24:44.280Z,5.78
2019-04-06T21:27:12.396Z,5.60
2019-04-06T21:29:39.770Z,5.55
2019-04-06T21:32:06.597Z,5.37
2019-04-06T21:34:34.000Z,6.65
2019-04-06T21:37:01.005Z,5.05
2019-04-06T21:39:27.952Z,5.17
2019-04-06T21:41:55.266Z,5.28
2019-04-06T21:44:22.264Z,5.72
2019-04-06T21:46:49.460Z,6.87
2019-04-06T21:49:16.663Z,7.30
2019-04-06T21:51:43.905Z,6.30
2019-04-06T21:54:11.022Z,7.35
2019-04-06T21:56:38.517Z,6.62
2019-04-06T21:59:06.395Z,6.60
2019-04-06T22:01:34.228Z,6.47
2019-04-06T22:04:01.486Z,6.05
2019-04-06T22:06:28.604Z,6.60
2019-04-06T22:08:55.623Z,8.57
2019-04-06T22:11:22.986Z,14.87
2019-04-06T22:13:50.172Z,10.78
2019-04-06T22:16:17.827Z,8.17
2019-04-06T22:18:45.286Z,7.70
2019-04-06T22:21:13.376Z,7.23
2019-04-06T22:23:44.958Z,7.08
2019-04-06T22:26:30.226Z,7.50
2019-04-06T22:29:03.830Z,8.57
2019-04-06T22:31:31.416Z,6.50
2019-04-06T22:33:59.439Z,8.50
2019-04-06T22:36:27.702Z,6.72
2019-04-06T22:38:55.305Z,6.80
2019-04-06T22:41:23.433Z,7.10
2019-04-06T22:43:51.484Z,7.35
2019-04-06T22:46:18.770Z,7.30
2019-04-06T22:48:46.892Z,7.87
2019-04-06T22:51:14.853Z,9.70
2019-04-06T22:53:42.338Z,8.50
2019-04-06T22:56:09.959Z,8.73
2019-04-06T22:58:36.989Z,10.27
2019-04-06T23:01:09.413Z,8.43
2019-04-06T23:03:54.633Z,8.43
2019-04-06T23:06:28.876Z,10.20
2019-04-06T23:08:56.382Z,9.73
2019-04-06T23:11:23.718Z,8.93
2019-04-06T23:13:51.542Z,9.17
2019-04-06T23:16:18.690Z,8.87
2019-04-06T23:18:45.570Z,10.10
2019-04-06T23:21:13.378Z,10.40
2019-04-06T23:23:40.778Z,8.23
2019-04-06T23:26:07.985Z,9.23
2019-04-06T23:28:35.173Z,9.27
2019-04-06T23:31:02.189Z,9.00
2019-04-06T23:33:29.130Z,9.27
2019-04-06T23:35:55.949Z,9.43
2019-04-06T23:38:23.293Z,9.17
2019-04-06T23:40:50.465Z,9.00
2019-04-06T23:43:17.377Z,9.90
2019-04-06T23:45:44.718Z,8.97
2019-04-06T23:48:12.065Z,10.40
2019-04-06T23:50:39.546Z,9.77
2019-04-06T23:53:06.771Z,9.47
2019-04-06T23:55:33.917Z,9.03
2019-04-06T23:58:00.716Z,9.73
